Pagrindinis puslapis
METAR-TAF:

METAR-TAF

Oro uostai :

Ras al Chaima, Jungtiniai Arabų Emyratai

platuma: 25-37N, ilguma: 055-56E, Aukštis: 31 m

Dabartinis oras

Ataskaita buvo paskelbta 1 valandą ir 2 minutes, ne 22:00 UTC
Vėjas 4 kt iš Rytų/Pietryčių
Temperatūra 30°C
Drėgmė 79%
Slėgis 1000 hPa
Matomumas: 6000 m

METAR: OMRK 042200Z 11004KT 6000 NSC 30/26 Q1000 A2954

Laikas: 03:02 (23:02 UTC)

Prognozė

Ataskaita buvo paskelbta 6 valandos ir 8 minutes, ne 16:54 UTC
Prognozė galioja nuo 04 metu 18 UTC su 06 metu 00 UTC
Vėjas 2 kt nuo kintamojo kryptimis
Matomumas: 8000 m
Tikimybė 30%
nuo 04 metu 22 UTC su 05 metu 04 UTC
Matomumas: 4000 m
migla
Tapsmas
nuo 05 metu 05 UTC su 05 metu 07 UTC
Vėjas 10 kt iš Šiaurės Vakarų
Tapsmas
nuo 05 metu 15 UTC su 05 metu 17 UTC
Vėjas 2 kt nuo kintamojo kryptimis

TAF: OMRK 041654Z 0418/0600 VRB02KT 8000 NSC PROB30 0422/0504 4000 HZ BECMG 0505/0507 32010KT BECMG 0515/0517 VRB02KT

Orai ataskaitas ir orų prognozės (METAR, TAF).

turimą stotys yra geltonos ir raudonos taškus žemėlapyje.

Perkelti pele per norėdami pamatyti stoties vardą.

Tada spustelėkite, norėdami matyti oro stebėjimo ir prognozės.

Norėdami pakeisti žemėlapį: spustelėkite ant žalios mygtukų su juodo kryžiaus žemyn,; žalią mygtuką su brūkšneliu, jei norite nutolinti; arba žalių rodyklių gretimoms žemėlapius.


METAR-TAF: